createdAt,value
2023-02-22T00:00:22.897Z,100.00
2023-02-22T00:02:50.909Z,100.00
2023-02-22T00:05:20.153Z,100.00
2023-02-22T00:07:49.564Z,100.00
2023-02-22T00:10:20.418Z,100.00
2023-02-22T00:12:48.995Z,100.00
2023-02-22T00:15:17.165Z,100.00
2023-02-22T00:17:44.735Z,100.00
2023-02-22T00:20:14.074Z,100.00
2023-02-22T00:22:42.349Z,100.00
2023-02-22T00:25:11.462Z,100.00
2023-02-22T00:27:38.993Z,100.00
2023-02-22T00:30:07.033Z,100.00
2023-02-22T00:32:34.686Z,100.00
2023-02-22T00:35:05.535Z,100.00
2023-02-22T00:37:33.695Z,100.00
2023-02-22T00:40:01.170Z,100.00
2023-02-22T00:42:30.068Z,100.00
2023-02-22T00:45:00.513Z,100.00
2023-02-22T00:47:28.370Z,100.00
2023-02-22T00:49:55.967Z,100.00
2023-02-22T00:52:23.545Z,100.00
2023-02-22T00:54:51.107Z,100.00
2023-02-22T00:57:19.141Z,100.00
2023-02-22T00:59:48.121Z,100.00
2023-02-22T01:02:15.603Z,100.00
2023-02-22T01:04:43.136Z,100.00
2023-02-22T01:07:10.701Z,100.00
2023-02-22T01:09:39.605Z,100.00
2023-02-22T01:12:08.112Z,100.00
2023-02-22T01:14:35.632Z,100.00
2023-02-22T01:17:04.794Z,100.00
2023-02-22T01:19:32.999Z,100.00
2023-02-22T01:22:00.615Z,100.00
2023-02-22T01:24:28.227Z,100.00
2023-02-22T01:26:55.956Z,100.00
2023-02-22T01:29:23.572Z,100.00
2023-02-22T01:31:55.058Z,100.00
2023-02-22T01:34:24.652Z,100.00
2023-02-22T01:36:52.188Z,100.00
2023-02-22T01:39:19.665Z,100.00
2023-02-22T01:41:47.458Z,100.00
2023-02-22T01:44:19.252Z,100.00
2023-02-22T01:46:46.762Z,100.00
2023-02-22T01:49:15.065Z,100.00
2023-02-22T01:51:45.081Z,100.00
2023-02-22T01:54:13.829Z,100.00
2023-02-22T01:56:41.829Z,100.00
2023-02-22T01:59:12.455Z,100.00
2023-02-22T02:01:42.896Z,100.00
2023-02-22T02:04:11.653Z,100.00
2023-02-22T02:06:39.347Z,100.00
2023-02-22T02:09:10.806Z,100.00
2023-02-22T02:11:40.392Z,100.00
2023-02-22T02:14:08.975Z,100.00
2023-02-22T02:16:37.449Z,100.00
2023-02-22T02:19:05.067Z,100.00
2023-02-22T02:21:40.601Z,100.00
2023-02-22T02:24:23.912Z,100.00
2023-02-22T02:27:04.122Z,100.00
2023-02-22T02:29:50.078Z,100.00
2023-02-22T02:32:23.227Z,100.00
2023-02-22T02:34:51.507Z,100.00
2023-02-22T02:37:21.038Z,100.00
2023-02-22T02:39:50.286Z,100.00
2023-02-22T02:42:18.196Z,100.00
2023-02-22T02:44:47.225Z,100.00
2023-02-22T02:47:15.470Z,100.00
2023-02-22T02:49:45.335Z,100.00
2023-02-22T02:52:13.519Z,100.00
2023-02-22T02:54:41.116Z,100.00
2023-02-22T02:57:09.440Z,100.00
2023-02-22T02:59:37.470Z,100.00
2023-02-22T03:02:09.329Z,100.00
2023-02-22T03:04:39.479Z,100.00
2023-02-22T03:07:18.646Z,100.00
2023-02-22T03:09:49.931Z,100.00
2023-02-22T03:12:22.961Z,100.00
2023-02-22T03:14:55.744Z,100.00
2023-02-22T03:17:24.346Z,100.00
2023-02-22T03:19:52.563Z,100.00
2023-02-22T03:22:23.768Z,100.00
2023-02-22T03:24:53.058Z,100.00
2023-02-22T03:27:22.775Z,100.00
2023-02-22T03:29:50.729Z,100.00
2023-02-22T03:32:19.915Z,100.00
2023-02-22T03:34:50.633Z,100.00
2023-02-22T03:37:18.662Z,100.00
2023-02-22T03:39:47.611Z,100.00
2023-02-22T03:42:15.844Z,100.00
2023-02-22T03:44:43.833Z,100.00
2023-02-22T03:47:12.667Z,100.00
2023-02-22T03:49:41.622Z,100.00
2023-02-22T03:52:09.272Z,100.00
2023-02-22T03:54:36.848Z,100.00
2023-02-22T03:57:07.859Z,100.00
2023-02-22T03:59:35.346Z,100.00
2023-02-22T04:02:03.237Z,100.00
2023-02-22T04:04:30.793Z,100.00
2023-02-22T04:06:58.426Z,100.00
2023-02-22T04:09:26.065Z,100.00
2023-02-22T04:11:53.620Z,100.00
2023-02-22T04:14:23.844Z,100.00
2023-02-22T04:16:51.553Z,100.00
2023-02-22T04:19:19.163Z,100.00
2023-02-22T04:21:46.672Z,100.00
2023-02-22T04:24:14.360Z,100.00
2023-02-22T04:26:41.905Z,100.00
2023-02-22T04:29:09.525Z,100.00
2023-02-22T04:31:38.533Z,100.00
2023-02-22T04:34:06.301Z,100.00
2023-02-22T04:36:33.822Z,100.00
2023-02-22T04:39:01.444Z,100.00
2023-02-22T04:41:29.036Z,100.00
2023-02-22T04:43:57.331Z,100.00
2023-02-22T04:46:24.959Z,100.00
2023-02-22T04:48:54.043Z,100.00
2023-02-22T04:51:21.753Z,100.00
2023-02-22T04:53:49.250Z,100.00
2023-02-22T04:56:18.036Z,100.00
2023-02-22T04:58:45.546Z,100.00
2023-02-22T05:01:13.111Z,100.00
2023-02-22T05:03:40.672Z,100.00
2023-02-22T05:06:09.658Z,100.00
2023-02-22T05:08:37.216Z,100.00
2023-02-22T05:11:05.174Z,100.00
2023-02-22T05:13:32.680Z,100.00
2023-02-22T05:16:00.193Z,100.00
2023-02-22T05:18:27.670Z,100.00
2023-02-22T05:20:55.196Z,100.00
2023-02-22T05:23:24.151Z,100.00
2023-02-22T05:25:51.737Z,100.00
2023-02-22T05:28:19.443Z,100.00
2023-02-22T05:30:47.124Z,100.00
2023-02-22T05:33:14.753Z,100.00
2023-02-22T05:35:42.329Z,100.00
2023-02-22T05:38:11.260Z,100.00
2023-02-22T05:40:40.254Z,100.00
2023-02-22T05:43:07.902Z,100.00
2023-02-22T05:45:36.152Z,100.00
2023-02-22T05:48:03.903Z,100.00
2023-02-22T05:50:33.165Z,100.00
2023-02-22T05:53:00.921Z,100.00
2023-02-22T05:55:28.453Z,100.00
2023-02-22T05:57:57.351Z,100.00
2023-02-22T06:00:25.886Z,100.00
2023-02-22T06:02:56.930Z,100.00
2023-02-22T06:05:24.567Z,100.00
2023-02-22T06:07:52.355Z,100.00
2023-02-22T06:10:20.059Z,100.00
2023-02-22T06:12:47.623Z,100.00
2023-02-22T06:15:17.045Z,100.00
2023-02-22T06:17:44.984Z,100.00
2023-02-22T06:20:13.277Z,100.00
2023-02-22T06:22:41.170Z,100.00
2023-02-22T06:25:09.076Z,100.00
2023-02-22T06:27:37.406Z,100.00
2023-02-22T06:30:05.252Z,100.00
2023-02-22T06:32:34.239Z,100.00
2023-02-22T06:35:01.750Z,100.00
2023-02-22T06:37:29.289Z,100.00
2023-02-22T06:39:59.169Z,100.00
2023-02-22T06:42:28.308Z,100.00
2023-02-22T06:44:55.808Z,100.00
2023-02-22T06:47:23.289Z,100.00
2023-02-22T06:49:54.933Z,100.00
2023-02-22T06:52:22.772Z,100.00
2023-02-22T06:54:50.485Z,100.00
2023-02-22T06:57:18.388Z,100.00
2023-02-22T06:59:45.916Z,100.00
2023-02-22T07:02:13.772Z,100.00
2023-02-22T07:04:43.422Z,100.00
2023-02-22T07:07:12.608Z,100.00
2023-02-22T07:09:40.072Z,100.00
2023-02-22T07:12:07.960Z,100.00
2023-02-22T07:14:35.480Z,100.00
2023-02-22T07:17:03.366Z,100.00
2023-02-22T07:19:30.861Z,100.00
2023-02-22T07:21:59.357Z,100.00
2023-02-22T07:24:29.182Z,100.00
2023-02-22T07:26:56.767Z,100.00
2023-02-22T07:29:24.241Z,100.00
2023-02-22T07:31:58.884Z,100.00
2023-02-22T07:34:26.386Z,100.00
2023-02-22T07:36:53.925Z,100.00
2023-02-22T07:39:21.398Z,100.00
2023-02-22T07:41:50.902Z,100.00
2023-02-22T07:44:18.470Z,100.00
2023-02-22T07:46:47.792Z,100.00
2023-02-22T07:49:15.259Z,100.00
2023-02-22T07:51:42.741Z,100.00
2023-02-22T07:54:10.262Z,100.00
2023-02-22T07:56:37.707Z,100.00
2023-02-22T07:59:06.511Z,100.00
2023-02-22T08:01:35.630Z,100.00
2023-02-22T08:04:04.228Z,100.00
2023-02-22T08:06:32.037Z,100.00
2023-02-22T08:08:59.663Z,100.00
2023-02-22T08:11:27.282Z,100.00
2023-02-22T08:13:54.790Z,100.00
2023-02-22T08:16:23.634Z,100.00
2023-02-22T08:18:51.135Z,100.00
2023-02-22T08:21:19.017Z,100.00
2023-02-22T08:23:46.700Z,100.00
2023-02-22T08:26:18.494Z,100.00
2023-02-22T08:28:45.961Z,100.00
2023-02-22T08:31:13.561Z,100.00
2023-02-22T08:33:42.588Z,100.00
2023-02-22T08:36:10.275Z,100.00
2023-02-22T08:38:38.005Z,100.00
2023-02-22T08:41:06.927Z,100.00
2023-02-22T08:43:34.438Z,100.00
2023-02-22T08:46:02.007Z,100.00
2023-02-22T08:48:29.502Z,100.00
2023-02-22T08:50:58.737Z,100.00
2023-02-22T08:53:26.280Z,100.00
2023-02-22T08:55:53.883Z,100.00
2023-02-22T08:58:21.340Z,100.00
2023-02-22T09:00:49.160Z,100.00
2023-02-22T09:03:16.869Z,100.00
2023-02-22T09:05:44.830Z,100.00
2023-02-22T09:08:13.869Z,100.00
2023-02-22T09:10:41.922Z,100.00
2023-02-22T09:13:09.435Z,100.00
2023-02-22T09:15:37.195Z,100.00
2023-02-22T09:18:05.052Z,100.00
2023-02-22T09:20:32.546Z,100.00
2023-02-22T09:23:02.882Z,100.00
2023-02-22T09:25:31.959Z,100.00
2023-02-22T09:27:59.503Z,100.00
2023-02-22T09:30:28.224Z,100.00
2023-02-22T09:32:56.567Z,100.00
2023-02-22T09:35:27.123Z,100.00
2023-02-22T09:37:55.524Z,100.00
2023-02-22T09:40:25.942Z,100.00
2023-02-22T09:42:58.042Z,100.00
2023-02-22T09:45:28.638Z,100.00
2023-02-22T09:47:58.608Z,100.00
2023-02-22T09:50:29.722Z,100.00
2023-02-22T09:52:57.885Z,100.00
2023-02-22T09:55:31.040Z,100.00
2023-02-22T09:58:01.550Z,100.00
2023-02-22T10:00:32.490Z,100.00
2023-02-22T10:03:01.521Z,100.00
2023-02-22T10:05:31.100Z,100.00
2023-02-22T10:07:59.582Z,100.00
2023-02-22T10:10:28.186Z,100.00
2023-02-22T10:12:57.553Z,100.00
2023-02-22T10:15:46.120Z,100.00
2023-02-22T10:18:34.716Z,100.00
2023-02-22T10:21:03.652Z,100.00
2023-02-22T10:23:32.015Z,100.00
2023-02-22T10:26:00.786Z,100.00
2023-02-22T10:28:30.951Z,100.00
2023-02-22T10:31:01.452Z,100.00
2023-02-22T10:33:29.282Z,100.00
2023-02-22T10:35:56.825Z,100.00
2023-02-22T10:38:25.298Z,100.00
2023-02-22T10:40:54.886Z,100.00
2023-02-22T10:43:23.464Z,100.00
2023-02-22T10:45:51.602Z,100.00
2023-02-22T10:48:21.120Z,100.00
2023-02-22T10:50:48.779Z,100.00
2023-02-22T10:53:16.383Z,100.00
2023-02-22T10:56:02.563Z,100.00
2023-02-22T10:58:30.070Z,100.00
2023-02-22T11:00:57.588Z,100.00
2023-02-22T11:03:26.616Z,100.00
2023-02-22T11:05:54.140Z,100.00
2023-02-22T11:08:25.731Z,100.00
2023-02-22T11:10:53.844Z,100.00
2023-02-22T11:13:26.516Z,100.00
2023-02-22T11:15:54.294Z,100.00
2023-02-22T11:18:30.119Z,100.00
2023-02-22T11:21:04.648Z,100.00
2023-02-22T11:23:32.182Z,100.00
2023-02-22T11:26:03.780Z,100.00
2023-02-22T11:28:32.872Z,100.00
2023-02-22T11:31:01.250Z,100.00
2023-02-22T11:33:31.119Z,100.00
2023-02-22T11:35:59.352Z,100.00
2023-02-22T11:38:27.466Z,100.00
2023-02-22T11:41:17.539Z,100.00
2023-02-22T11:43:45.751Z,100.00
2023-02-22T11:46:14.099Z,100.00
2023-02-22T11:48:44.904Z,100.00
2023-02-22T11:51:16.233Z,100.00
2023-02-22T11:53:47.252Z,100.00
2023-02-22T11:56:20.566Z,100.00
2023-02-22T11:58:51.132Z,99.99
2023-02-22T12:01:22.541Z,99.89
2023-02-22T12:03:55.184Z,99.51
2023-02-22T12:06:27.016Z,99.40
2023-02-22T12:08:58.845Z,99.29
2023-02-22T12:11:27.205Z,98.79
2023-02-22T12:13:58.802Z,98.98
2023-02-22T12:16:29.878Z,99.25
2023-02-22T12:19:06.485Z,99.06
2023-02-22T12:21:33.977Z,99.11
2023-02-22T12:24:02.424Z,99.16
2023-02-22T12:26:31.541Z,99.43
2023-02-22T12:28:59.872Z,99.31
2023-02-22T12:31:29.385Z,99.14
2023-02-22T12:34:01.047Z,99.03
2023-02-22T12:36:32.881Z,99.13
2023-02-22T12:39:07.092Z,98.71
2023-02-22T12:41:36.552Z,98.53
2023-02-22T12:44:05.422Z,98.43
2023-02-22T12:46:33.858Z,97.56
2023-02-22T12:49:02.088Z,97.33
2023-02-22T12:51:31.605Z,97.56
2023-02-22T12:54:02.265Z,98.10
2023-02-22T12:56:31.558Z,97.97
2023-02-22T12:59:02.883Z,97.99
2023-02-22T13:01:31.470Z,98.04
2023-02-22T13:04:05.765Z,97.81
2023-02-22T13:06:45.675Z,97.75
2023-02-22T13:09:27.802Z,98.18
2023-02-22T13:11:56.569Z,98.05
2023-02-22T13:14:30.889Z,98.08
2023-02-22T13:16:59.448Z,97.77
2023-02-22T13:19:29.478Z,98.01
2023-02-22T13:21:58.902Z,97.86
2023-02-22T13:24:27.340Z,96.95
2023-02-22T13:26:55.105Z,97.63
2023-02-22T13:29:23.492Z,97.44
2023-02-22T13:32:09.095Z,97.51
2023-02-22T13:34:57.923Z,96.85
2023-02-22T13:37:32.969Z,96.87
2023-02-22T13:40:16.875Z,97.25
2023-02-22T13:42:57.587Z,96.91
2023-02-22T13:45:38.972Z,97.24
2023-02-22T13:48:09.894Z,97.34
2023-02-22T13:50:58.379Z,96.58
2023-02-22T13:53:27.853Z,96.79
2023-02-22T13:55:57.760Z,96.95
2023-02-22T13:58:25.770Z,97.33
2023-02-22T14:00:55.677Z,96.75
2023-02-22T14:03:34.270Z,96.46
2023-02-22T14:06:02.386Z,94.95
2023-02-22T14:08:42.019Z,95.28
2023-02-22T14:11:26.155Z,95.91
2023-02-22T14:14:12.998Z,96.67
2023-02-22T14:16:40.580Z,96.59
2023-02-22T14:19:14.640Z,96.95
2023-02-22T14:21:56.090Z,96.75
2023-02-22T14:24:27.476Z,96.10
2023-02-22T14:26:56.144Z,96.34
2023-02-22T14:29:23.647Z,96.83
2023-02-22T14:32:00.105Z,96.71
2023-02-22T14:34:40.072Z,96.90
2023-02-22T14:37:13.225Z,96.22
2023-02-22T14:39:43.514Z,96.78
2023-02-22T14:42:14.223Z,96.25
2023-02-22T14:44:42.864Z,96.29
2023-02-22T14:47:14.820Z,96.23
2023-02-22T14:49:44.410Z,96.68
2023-02-22T14:52:18.522Z,96.66
2023-02-22T14:54:51.055Z,97.01
2023-02-22T14:57:21.680Z,96.50
2023-02-22T14:59:53.284Z,95.97
2023-02-22T15:02:22.772Z,95.72
2023-02-22T15:04:53.730Z,94.87
2023-02-22T15:07:22.600Z,95.66
2023-02-22T15:09:51.594Z,95.40
2023-02-22T15:12:22.523Z,95.79
2023-02-22T15:14:51.670Z,95.91
2023-02-22T15:17:19.539Z,96.43
2023-02-22T15:19:47.121Z,97.04
2023-02-22T15:22:19.881Z,96.54
2023-02-22T15:24:49.359Z,95.89
2023-02-22T15:27:19.463Z,96.21
2023-02-22T15:29:47.082Z,96.39
2023-02-22T15:32:21.342Z,96.29
2023-02-22T15:34:48.956Z,96.50
2023-02-22T15:37:22.298Z,96.90
2023-02-22T15:39:57.681Z,95.96
2023-02-22T15:42:29.399Z,96.33
2023-02-22T15:44:57.946Z,96.48
2023-02-22T15:47:27.344Z,96.91
2023-02-22T15:50:15.402Z,96.16
2023-02-22T15:52:53.127Z,95.92
2023-02-22T15:55:20.895Z,96.28
2023-02-22T15:57:49.843Z,96.40
2023-02-22T16:00:22.096Z,96.74
2023-02-22T16:02:51.018Z,96.82
2023-02-22T16:05:19.076Z,96.92
2023-02-22T16:07:48.087Z,96.74
2023-02-22T16:10:22.961Z,96.82
2023-02-22T16:12:52.573Z,96.63
2023-02-22T16:15:20.178Z,97.29
2023-02-22T16:18:01.493Z,97.23
2023-02-22T16:20:36.315Z,96.92
2023-02-22T16:26:05.477Z,91.21
2023-02-22T16:28:35.657Z,89.12
2023-02-22T16:31:04.364Z,88.32
2023-02-22T16:33:34.173Z,87.20
2023-02-22T16:36:08.163Z,86.60
2023-02-22T16:38:38.385Z,85.82
2023-02-22T16:41:08.231Z,85.41
2023-02-22T16:43:36.316Z,84.78
2023-02-22T16:46:06.841Z,84.59
2023-02-22T16:48:38.077Z,84.97
2023-02-22T16:51:15.456Z,84.18
2023-02-22T16:53:44.539Z,84.22
2023-02-22T16:56:16.732Z,84.13
2023-02-22T16:58:45.484Z,84.23
2023-02-22T17:01:13.768Z,83.71
2023-02-22T17:03:41.610Z,83.50
2023-02-22T17:06:10.987Z,83.80
2023-02-22T17:08:38.849Z,83.76
2023-02-22T17:11:07.502Z,84.18
2023-02-22T17:13:36.733Z,83.27
2023-02-22T17:16:05.577Z,83.14
2023-02-22T17:18:34.761Z,83.45
2023-02-22T17:21:03.445Z,83.61
2023-02-22T17:23:31.297Z,83.64
2023-02-22T17:26:00.262Z,83.55
2023-02-22T17:28:28.289Z,83.82
2023-02-22T17:31:01.600Z,83.92
2023-02-22T17:33:32.938Z,84.33
2023-02-22T17:36:02.856Z,84.97
2023-02-22T17:38:30.711Z,84.72
2023-02-22T17:40:59.689Z,85.07
2023-02-22T17:43:28.850Z,84.75
2023-02-22T17:45:58.313Z,85.18
2023-02-22T17:48:26.898Z,84.47
2023-02-22T17:50:54.670Z,84.75
2023-02-22T17:53:24.747Z,85.10
2023-02-22T17:55:52.788Z,85.41
2023-02-22T17:58:20.641Z,85.87
2023-02-22T18:00:50.133Z,85.85
2023-02-22T18:03:21.862Z,85.73
2023-02-22T18:05:51.253Z,85.67
2023-02-22T18:08:19.072Z,86.35
2023-02-22T18:10:47.630Z,86.81
2023-02-22T18:13:17.871Z,87.36
2023-02-22T18:15:45.941Z,87.20
2023-02-22T18:18:14.917Z,87.57
2023-02-22T18:20:44.554Z,87.73
2023-02-22T18:23:14.604Z,87.70
2023-02-22T18:25:57.152Z,88.43
2023-02-22T18:28:31.878Z,88.22
2023-02-22T18:31:00.422Z,88.22
2023-02-22T18:33:28.354Z,88.19
2023-02-22T18:35:59.609Z,88.63
2023-02-22T18:38:27.350Z,88.96
2023-02-22T18:41:02.233Z,88.90
2023-02-22T18:43:31.894Z,88.67
2023-02-22T18:46:09.508Z,88.62
2023-02-22T18:48:38.986Z,88.57
2023-02-22T18:51:10.254Z,89.04
2023-02-22T18:53:38.454Z,88.96
2023-02-22T18:56:09.724Z,89.08
2023-02-22T18:58:38.788Z,89.21
2023-02-22T19:01:07.552Z,89.41
2023-02-22T19:03:38.298Z,89.91
2023-02-22T19:06:09.859Z,89.68
2023-02-22T19:08:39.505Z,89.53
2023-02-22T19:11:08.851Z,89.65
2023-02-22T19:13:36.736Z,89.41
2023-02-22T19:16:05.032Z,89.55
2023-02-22T19:18:32.883Z,89.79
2023-02-22T19:21:01.855Z,89.31
2023-02-22T19:23:34.457Z,89.46
2023-02-22T19:26:03.147Z,89.41
2023-02-22T19:28:34.152Z,89.38
2023-02-22T19:31:12.398Z,88.93
2023-02-22T19:33:40.274Z,89.19
2023-02-22T19:36:09.310Z,88.80
2023-02-22T19:38:38.626Z,89.26
2023-02-22T19:41:10.848Z,89.01
2023-02-22T19:43:38.541Z,88.91
2023-02-22T19:46:07.373Z,88.80
2023-02-22T19:48:35.173Z,88.89
2023-02-22T19:51:06.219Z,88.84
2023-02-22T19:53:34.217Z,88.78
2023-02-22T19:56:06.880Z,88.76
2023-02-22T19:58:36.754Z,88.52
2023-02-22T20:01:12.149Z,88.96
2023-02-22T20:03:41.016Z,88.93
2023-02-22T20:06:09.911Z,89.21
2023-02-22T20:08:41.830Z,89.24
2023-02-22T20:11:12.029Z,89.34
2023-02-22T20:13:40.859Z,89.17
2023-02-22T20:16:09.874Z,89.27
2023-02-22T20:18:37.802Z,89.16
2023-02-22T20:21:09.448Z,89.19
2023-02-22T20:23:40.152Z,89.05
2023-02-22T20:26:17.437Z,89.07
2023-02-22T20:28:45.277Z,89.02
2023-02-22T20:31:14.445Z,88.68
2023-02-22T20:33:42.860Z,89.07
2023-02-22T20:36:11.557Z,89.00
2023-02-22T20:38:39.696Z,88.99
2023-02-22T20:41:08.108Z,88.66
2023-02-22T20:43:37.314Z,88.72
2023-02-22T20:46:06.426Z,88.40
2023-02-22T20:48:35.448Z,88.38
2023-02-22T20:51:06.772Z,88.23
2023-02-22T20:53:35.337Z,88.37
2023-02-22T20:56:03.273Z,88.84
2023-02-22T20:58:31.003Z,88.33
2023-02-22T21:01:06.297Z,88.50
2023-02-22T21:03:34.179Z,88.70
2023-02-22T21:06:02.414Z,88.74
2023-02-22T21:08:31.219Z,88.65
2023-02-22T21:10:59.454Z,88.95
2023-02-22T21:13:28.230Z,88.94
2023-02-22T21:15:56.384Z,88.91
2023-02-22T21:18:25.576Z,89.09
2023-02-22T21:20:53.785Z,88.53
2023-02-22T21:23:21.634Z,88.61
2023-02-22T21:25:53.025Z,88.71
2023-02-22T21:28:21.236Z,88.47
2023-02-22T21:30:49.023Z,88.61
2023-02-22T21:33:16.990Z,88.78
2023-02-22T21:35:47.291Z,88.31
2023-02-22T21:38:15.322Z,88.70
2023-02-22T21:40:47.602Z,88.32
2023-02-22T21:43:16.664Z,88.68
2023-02-22T21:45:44.497Z,89.00
2023-02-22T21:48:12.285Z,88.89
2023-02-22T21:50:40.669Z,89.17
2023-02-22T21:53:09.917Z,89.03
2023-02-22T21:55:38.317Z,89.14
2023-02-22T21:58:08.656Z,89.11
2023-02-22T22:00:39.126Z,88.72
2023-02-22T22:03:11.647Z,89.09
2023-02-22T22:05:40.351Z,89.30
2023-02-22T22:08:13.311Z,88.78
2023-02-22T22:10:41.090Z,88.98
2023-02-22T22:13:09.167Z,89.23
2023-02-22T22:15:37.490Z,89.06
2023-02-22T22:18:08.078Z,89.21
2023-02-22T22:20:39.059Z,88.89
2023-02-22T22:23:08.889Z,89.31
2023-02-22T22:25:38.960Z,89.29
2023-02-22T22:28:07.917Z,88.93
2023-02-22T22:30:37.067Z,88.75
2023-02-22T22:33:05.862Z,89.09
2023-02-22T22:35:33.758Z,88.98
2023-02-22T22:38:02.119Z,88.69
2023-02-22T22:40:30.103Z,89.10
2023-02-22T22:42:59.264Z,89.24
2023-02-22T22:45:26.992Z,88.95
2023-02-22T22:47:54.863Z,89.40
2023-02-22T22:50:26.348Z,89.05
2023-02-22T22:52:56.855Z,89.20
2023-02-22T22:55:25.019Z,89.29
2023-02-22T22:57:52.761Z,89.36
2023-02-22T23:00:35.900Z,89.45
2023-02-22T23:03:05.506Z,89.21
2023-02-22T23:05:37.277Z,89.40
2023-02-22T23:08:06.050Z,89.22
2023-02-22T23:10:39.258Z,89.27
2023-02-22T23:13:09.848Z,89.20
2023-02-22T23:15:42.948Z,89.22
2023-02-22T23:18:11.029Z,89.46
2023-02-22T23:20:39.071Z,89.50
2023-02-22T23:23:07.138Z,89.56
2023-02-22T23:25:35.161Z,89.03
2023-02-22T23:28:03.053Z,89.42
2023-02-22T23:30:30.885Z,88.90
2023-02-22T23:33:01.212Z,89.06
2023-02-22T23:35:28.991Z,89.11
2023-02-22T23:37:58.666Z,89.45
2023-02-22T23:40:26.890Z,89.34
2023-02-22T23:42:54.914Z,89.03
2023-02-22T23:45:24.517Z,89.23
2023-02-22T23:47:54.982Z,89.23
2023-02-22T23:50:25.950Z,89.16
2023-02-22T23:52:58.621Z,89.29
2023-02-22T23:55:27.031Z,89.40
2023-02-22T23:57:59.287Z,89.26
